Potsdam, Germany

5:58 PM CEST on July 01, 2015 (GMT +0200)
potsdam | | Change Station
CLOSE
Current Station
Personal Weather Station
Location: Potsdam, BRANDENBURG
Elevation: 118 ft
Nearby Weather Stations

Elev 118 ft 52.39 °N, 13.06 °E | Updated 3 seconds ago

Clear
Clear
82.4 °F
Feels Like 81 °F
N
1.3
Wind Variable Wind from NE
Gusts 4.9 mph

Today
High -- | Low -- °F
--% Chance of Precip.
Yesterday
High -- | Low -- °F
Precip. -- in
4:49 AM 9:33 PM
Full, 100% visible
Pressure 30.21 in
Visibility -9999.0 miles
Clouds
Heat Index 81 °F
Dew Point 47 °F
Humidity 29%
Rainfall 0.00 in
Snow Depth Not available.
UV 2.0 out of 12
Pollen Not available.
Air Quality Not available.
Flu Activity Not available.
METAR EDDT 011550Z 08006KT 020V140 CAVOK 26/06 Q1023 NOSIG

More Conditions Fewer Conditions

Pressure 30.21 in
Visibility -9999.0 miles
Clouds
Heat Index 81 °F
Dew Point 47 °F
Humidity 29%
Rainfall 0.00 in
Snow Depth Not available.
UV 2.0 out of 12
Pollen Not available.
Air Quality Not available.
Flu Activity Not available.
METAR EDDT 011550Z 08006KT 020V140 CAVOK 26/06 Q1023 NOSIG

More Conditions Fewer Conditions

10-Day Weather Forecast

×

Almanac

Astronomy

Jul. 01, 2015 Rise Set
Actual Time
Civil Twilight
Nautical Twilight
Astronomical Twilight
Moon
Length of Visible Light
Length of Day
Tomorrow will be .
, % of the Moon is Illuminated

Today's Extremes

Country Highs Country Lows

Community

WunderPhotos

Upload Photos

1,834,232 photos uploaded!

WunderBlogs® & News

Nearby

Air Quality

  Air Quality AQ Index Pollutant
Not available.

Snow Depth

Station Depth Elevation

Earthquake Activity

City Distance Mag. Time & Date
Minimum magnitude displayed is 2.5.

Coastal Water Temperatures

Place Temperature

Stations

Nearby Weather Stations

Station Location Temp. Windchill Dew Point Humidity Wind Precip. Elev Updated Type